createdAt,value
2023-04-17T00:01:11.026Z,9.40
2023-04-17T00:03:38.278Z,8.82
2023-04-17T00:06:05.465Z,9.25
2023-04-17T00:08:32.681Z,8.93
2023-04-17T00:11:07.056Z,9.10
2023-04-17T00:13:34.851Z,9.00
2023-04-17T00:16:01.369Z,9.57
2023-04-17T00:18:27.909Z,9.25
2023-04-17T00:20:54.622Z,9.32
2023-04-17T00:23:21.086Z,8.68
2023-04-17T00:25:47.622Z,9.68
2023-04-17T00:28:14.126Z,9.68
2023-04-17T00:30:40.889Z,9.95
2023-04-17T00:33:07.392Z,9.30
2023-04-17T00:35:33.906Z,9.35
2023-04-17T00:38:00.449Z,9.55
2023-04-17T00:40:27.093Z,9.15
2023-04-17T00:42:59.377Z,9.60
2023-04-17T00:45:26.802Z,9.38
2023-04-17T00:47:54.085Z,9.02
2023-04-17T00:50:20.716Z,9.43
2023-04-17T00:52:47.500Z,9.02
2023-04-17T00:55:14.892Z,9.77
2023-04-17T00:57:42.553Z,9.80
2023-04-17T01:00:10.595Z,9.50
2023-04-17T01:02:38.196Z,9.43
2023-04-17T01:05:05.267Z,9.43
2023-04-17T01:07:31.981Z,9.55
2023-04-17T01:09:59.220Z,9.25
2023-04-17T01:12:26.277Z,9.30
2023-04-17T01:14:54.459Z,9.52
2023-04-17T01:17:21.804Z,10.27
2023-04-17T01:19:49.730Z,9.77
2023-04-17T01:22:16.712Z,10.07
2023-04-17T01:24:43.787Z,9.50
2023-04-17T01:27:14.463Z,9.07
2023-04-17T01:29:42.575Z,9.27
2023-04-17T01:32:09.545Z,9.68
2023-04-17T01:34:37.401Z,9.25
2023-04-17T01:37:04.325Z,9.95
2023-04-17T01:39:31.063Z,9.75
2023-04-17T01:41:57.536Z,9.27
2023-04-17T01:44:24.290Z,9.00
2023-04-17T01:46:51.197Z,8.75
2023-04-17T01:49:17.666Z,9.48
2023-04-17T01:51:44.222Z,8.85
2023-04-17T01:54:10.950Z,9.27
2023-04-17T01:56:37.652Z,9.07
2023-04-17T01:59:04.160Z,9.10
2023-04-17T02:01:31.110Z,9.55
2023-04-17T02:03:57.901Z,9.40
2023-04-17T02:06:24.905Z,9.15
2023-04-17T02:08:51.462Z,9.45
2023-04-17T02:11:18.385Z,9.93
2023-04-17T02:13:45.005Z,9.93
2023-04-17T02:16:12.569Z,9.32
2023-04-17T02:18:40.302Z,9.43
2023-04-17T02:21:06.917Z,9.05
2023-04-17T02:23:33.671Z,9.05
2023-04-17T02:26:00.383Z,9.40
2023-04-17T02:28:26.856Z,8.93
2023-04-17T02:30:53.437Z,10.40
2023-04-17T02:33:20.701Z,9.38
2023-04-17T02:35:47.568Z,9.30
2023-04-17T02:38:14.258Z,9.00
2023-04-17T02:40:40.826Z,9.48
2023-04-17T02:43:07.299Z,10.20
2023-04-17T02:45:33.927Z,9.98
2023-04-17T02:48:01.180Z,9.05
2023-04-17T02:50:27.688Z,9.35
2023-04-17T02:52:54.683Z,10.05
2023-04-17T02:55:21.340Z,10.00
2023-04-17T02:57:47.920Z,10.25
2023-04-17T03:00:14.932Z,10.07
2023-04-17T03:02:42.073Z,10.00
2023-04-17T03:05:09.244Z,10.05
2023-04-17T03:07:35.993Z,10.15
2023-04-17T03:10:03.335Z,10.02
2023-04-17T03:12:30.164Z,10.30
2023-04-17T03:14:56.919Z,9.63
2023-04-17T03:17:28.177Z,9.93
2023-04-17T03:19:54.666Z,10.07
2023-04-17T03:22:21.226Z,10.38
2023-04-17T03:24:47.971Z,10.05
2023-04-17T03:27:14.664Z,10.32
2023-04-17T03:29:41.329Z,10.07
2023-04-17T03:32:08.040Z,10.73
2023-04-17T03:34:34.631Z,10.45
2023-04-17T03:37:01.137Z,10.57
2023-04-17T03:39:27.624Z,10.63
2023-04-17T03:41:54.178Z,10.77
2023-04-17T03:44:21.001Z,9.68
2023-04-17T03:46:47.491Z,10.80
2023-04-17T03:49:14.200Z,10.73
2023-04-17T03:51:42.716Z,10.63
2023-04-17T03:54:09.343Z,11.38
2023-04-17T03:56:36.527Z,11.70
2023-04-17T03:59:06.082Z,10.05
2023-04-17T04:01:32.847Z,11.02
2023-04-17T04:03:59.951Z,10.55
2023-04-17T04:06:29.975Z,11.07
2023-04-17T04:08:57.121Z,10.75
2023-04-17T04:11:23.695Z,11.50
2023-04-17T04:13:50.520Z,11.02
2023-04-17T04:16:17.060Z,12.02
2023-04-17T04:18:43.559Z,11.65
2023-04-17T04:21:12.184Z,12.88
2023-04-17T04:23:41.132Z,12.38
2023-04-17T04:26:08.171Z,12.18
2023-04-17T04:28:34.735Z,11.55
2023-04-17T04:31:02.657Z,11.13
2023-04-17T04:33:29.560Z,12.35
2023-04-17T04:35:56.631Z,12.48
2023-04-17T04:38:29.949Z,11.98
2023-04-17T04:41:06.114Z,12.68
2023-04-17T04:43:33.568Z,12.45
2023-04-17T04:46:03.952Z,13.35
2023-04-17T04:48:36.801Z,12.10
2023-04-17T04:51:03.480Z,12.95
2023-04-17T04:53:30.114Z,13.10
2023-04-17T04:55:56.762Z,13.15
2023-04-17T04:58:23.260Z,12.35
2023-04-17T05:00:49.749Z,13.30
2023-04-17T05:03:16.901Z,13.63
2023-04-17T05:05:44.320Z,13.68
2023-04-17T05:08:10.807Z,13.85
2023-04-17T05:10:37.613Z,13.63
2023-04-17T05:13:04.917Z,13.77
2023-04-17T05:15:31.835Z,13.70
2023-04-17T05:18:04.654Z,13.30
2023-04-17T05:20:32.007Z,12.60
2023-04-17T05:22:58.730Z,13.05
2023-04-17T05:25:25.654Z,12.70
2023-04-17T05:27:52.222Z,14.07
2023-04-17T05:30:19.021Z,13.50
2023-04-17T05:32:46.027Z,13.60
2023-04-17T05:35:12.559Z,14.57
2023-04-17T05:37:42.626Z,14.23
2023-04-17T05:40:09.531Z,14.65
2023-04-17T05:42:36.876Z,14.95
2023-04-17T05:45:14.816Z,14.10
2023-04-17T05:47:47.604Z,13.20
2023-04-17T05:50:14.429Z,14.88
2023-04-17T05:52:40.905Z,13.50
2023-04-17T05:55:08.000Z,13.90
2023-04-17T05:57:34.792Z,14.38
2023-04-17T06:00:01.407Z,14.57
2023-04-17T06:02:28.110Z,14.27
2023-04-17T06:04:54.894Z,14.18
2023-04-17T06:07:21.602Z,14.70
2023-04-17T06:09:48.106Z,15.27
2023-04-17T06:12:16.266Z,14.77
2023-04-17T06:14:43.364Z,15.88
2023-04-17T06:17:10.080Z,14.13
2023-04-17T06:19:37.069Z,14.50
2023-04-17T06:22:03.641Z,15.38
2023-04-17T06:24:30.364Z,13.93
2023-04-17T06:26:57.191Z,14.18
2023-04-17T06:29:24.424Z,14.25
2023-04-17T06:31:50.912Z,14.25
2023-04-17T06:34:17.505Z,13.70
2023-04-17T06:36:44.414Z,14.07
2023-04-17T06:39:11.189Z,13.95
2023-04-17T06:41:38.083Z,13.48
2023-04-17T06:44:04.679Z,12.75
2023-04-17T06:46:31.400Z,12.75
2023-04-17T06:49:00.986Z,12.25
2023-04-17T06:51:28.752Z,12.63
2023-04-17T06:53:57.535Z,13.18
2023-04-17T06:56:24.323Z,13.40
2023-04-17T06:58:52.382Z,13.35
2023-04-17T07:01:19.218Z,12.15
2023-04-17T07:03:49.107Z,12.88
2023-04-17T07:06:15.897Z,12.93
2023-04-17T07:08:42.575Z,11.63
2023-04-17T07:11:09.083Z,12.02
2023-04-17T07:13:35.626Z,11.57
2023-04-17T07:16:02.342Z,11.18
2023-04-17T07:18:31.884Z,11.18
2023-04-17T07:21:03.139Z,11.05
2023-04-17T07:23:29.621Z,11.98
2023-04-17T07:25:56.191Z,11.05
2023-04-17T07:28:23.081Z,11.40
2023-04-17T07:30:49.570Z,10.85
2023-04-17T07:33:16.175Z,11.45
2023-04-17T07:35:43.464Z,11.52
2023-04-17T07:38:09.996Z,11.10
2023-04-17T07:40:36.812Z,12.18
2023-04-17T07:43:03.714Z,11.77
2023-04-17T07:45:30.607Z,11.77
2023-04-17T07:47:57.314Z,12.98
2023-04-17T07:50:23.917Z,11.75
2023-04-17T07:52:50.599Z,11.38
2023-04-17T07:55:17.054Z,11.85
2023-04-17T07:57:46.485Z,11.35
2023-04-17T08:00:16.778Z,11.18
2023-04-17T08:02:47.028Z,10.30
2023-04-17T08:05:13.885Z,10.05
2023-04-17T08:07:41.368Z,10.07
2023-04-17T08:10:08.224Z,10.75
2023-04-17T08:12:35.063Z,10.50
2023-04-17T08:15:01.549Z,10.30
2023-04-17T08:17:30.262Z,10.40
2023-04-17T08:20:02.533Z,11.32
2023-04-17T08:22:29.150Z,10.50
2023-04-17T08:24:58.865Z,10.82
2023-04-17T08:27:25.824Z,10.57
2023-04-17T08:29:53.646Z,10.25
2023-04-17T08:32:21.460Z,10.48
2023-04-17T08:34:48.274Z,10.40
2023-04-17T08:37:14.940Z,11.05
2023-04-17T08:39:41.437Z,10.30
2023-04-17T08:42:15.420Z,9.82
2023-04-17T08:44:44.554Z,10.68
2023-04-17T08:47:12.522Z,9.82
2023-04-17T08:49:43.201Z,9.98
2023-04-17T08:52:09.821Z,9.48
2023-04-17T08:54:37.990Z,9.02
2023-04-17T08:57:05.300Z,9.30
2023-04-17T08:59:32.300Z,10.15
2023-04-17T09:02:07.121Z,8.50
2023-04-17T09:04:47.737Z,8.85
2023-04-17T09:07:30.551Z,9.63
2023-04-17T09:09:57.540Z,8.77
2023-04-17T09:12:25.925Z,8.82
2023-04-17T09:14:52.450Z,8.95
2023-04-17T09:17:20.983Z,8.30
2023-04-17T09:20:13.745Z,8.68
2023-04-17T09:22:40.980Z,8.80
2023-04-17T09:25:26.392Z,8.07
2023-04-17T09:27:53.062Z,8.68
2023-04-17T09:30:19.774Z,8.98
2023-04-17T09:32:46.419Z,9.07
2023-04-17T09:35:25.554Z,8.25
2023-04-17T09:37:54.471Z,8.27
2023-04-17T09:40:22.883Z,7.97
2023-04-17T09:42:56.436Z,8.32
2023-04-17T09:45:24.604Z,8.63
2023-04-17T09:47:57.445Z,7.85
2023-04-17T09:50:27.106Z,7.45
2023-04-17T09:52:56.035Z,8.05
2023-04-17T09:55:23.971Z,7.93
2023-04-17T09:57:59.474Z,8.68
2023-04-17T10:00:27.772Z,7.65
2023-04-17T10:02:56.225Z,8.00
2023-04-17T10:05:29.198Z,8.20
2023-04-17T10:07:56.655Z,8.13
2023-04-17T10:10:34.877Z,8.05
2023-04-17T10:13:03.610Z,8.68
2023-04-17T10:15:30.832Z,8.80
2023-04-17T10:18:22.725Z,8.20
2023-04-17T10:20:51.291Z,8.63
2023-04-17T10:23:29.722Z,8.40
2023-04-17T10:26:28.135Z,8.50
2023-04-17T10:28:57.029Z,8.65
2023-04-17T10:32:02.501Z,7.75
2023-04-17T10:34:36.813Z,8.13
2023-04-17T10:37:05.097Z,7.63
2023-04-17T10:40:01.199Z,7.82
2023-04-17T10:45:04.885Z,7.80
2023-04-17T10:47:33.698Z,7.53
2023-04-17T10:50:03.893Z,7.38
2023-04-17T10:52:40.358Z,8.35
2023-04-17T10:55:23.534Z,7.97
2023-04-17T10:58:02.339Z,8.00
2023-04-17T11:00:49.730Z,7.82
2023-04-17T11:03:17.337Z,8.10
2023-04-17T11:05:47.446Z,7.85
2023-04-17T11:08:14.307Z,8.13
2023-04-17T11:10:40.853Z,7.72
2023-04-17T11:13:07.382Z,8.00
2023-04-17T11:15:35.264Z,7.90
2023-04-17T11:18:02.881Z,8.48
2023-04-17T11:20:35.729Z,8.02
2023-04-17T11:23:03.501Z,7.50
2023-04-17T11:25:34.940Z,7.53
2023-04-17T11:28:06.040Z,7.90
2023-04-17T11:30:35.382Z,8.98
2023-04-17T11:33:04.224Z,7.75
2023-04-17T11:35:41.283Z,8.25
2023-04-17T11:38:20.735Z,8.30
2023-04-17T11:40:54.128Z,7.60
2023-04-17T11:43:21.936Z,8.20
2023-04-17T11:45:56.902Z,8.20
2023-04-17T11:48:25.490Z,7.75
2023-04-17T11:51:04.531Z,8.25
2023-04-17T11:53:33.474Z,7.28
2023-04-17T11:56:14.452Z,8.32
2023-04-17T11:58:50.251Z,8.13
2023-04-17T12:01:17.959Z,7.63
2023-04-17T12:03:45.753Z,7.57
2023-04-17T12:06:13.211Z,7.18
2023-04-17T12:08:44.367Z,7.47
2023-04-17T12:11:26.140Z,7.15
2023-04-17T12:13:54.037Z,8.40
2023-04-17T12:16:21.732Z,7.28
2023-04-17T12:18:48.448Z,7.43
2023-04-17T12:21:14.990Z,8.95
2023-04-17T12:23:41.665Z,7.85
2023-04-17T12:26:08.854Z,7.82
2023-04-17T12:28:35.867Z,8.52
2023-04-17T12:31:03.006Z,9.10
2023-04-17T12:33:29.509Z,9.10
2023-04-17T12:35:56.465Z,9.38
2023-04-17T12:38:25.746Z,9.38
2023-04-17T12:40:54.686Z,9.40
2023-04-17T12:43:21.149Z,8.73
2023-04-17T12:45:47.859Z,9.60
2023-04-17T12:48:15.201Z,8.27
2023-04-17T12:50:42.516Z,9.73
2023-04-17T12:53:10.985Z,9.23
2023-04-17T12:55:38.711Z,9.82
2023-04-17T12:58:08.992Z,10.38
2023-04-17T13:00:35.651Z,10.25
2023-04-17T13:03:02.204Z,10.57
2023-04-17T13:05:29.220Z,10.35
2023-04-17T13:07:59.753Z,10.75
2023-04-17T13:10:29.338Z,10.10
2023-04-17T13:12:56.007Z,10.18
2023-04-17T13:15:22.483Z,9.13
2023-04-17T13:17:49.038Z,9.48
2023-04-17T13:20:15.538Z,9.00
2023-04-17T13:22:41.999Z,9.30
2023-04-17T13:25:08.908Z,8.77
2023-04-17T13:27:35.415Z,9.38
2023-04-17T13:30:01.896Z,9.43
2023-04-17T13:32:28.523Z,9.52
2023-04-17T13:34:58.593Z,9.10
2023-04-17T13:37:26.029Z,9.07
2023-04-17T13:39:52.824Z,9.68
2023-04-17T13:42:19.440Z,9.30
2023-04-17T13:44:46.210Z,9.43
2023-04-17T13:47:13.197Z,10.10
2023-04-17T13:49:39.695Z,9.52
2023-04-17T13:52:06.643Z,9.35
2023-04-17T13:54:33.272Z,9.80
2023-04-17T13:56:59.799Z,10.40
2023-04-17T13:59:26.403Z,9.65
2023-04-17T14:01:53.140Z,10.43
2023-04-17T14:04:19.939Z,9.73
2023-04-17T14:06:49.600Z,10.32
2023-04-17T14:09:17.328Z,9.55
2023-04-17T14:11:43.790Z,9.40
2023-04-17T14:14:12.816Z,8.77
2023-04-17T14:16:43.533Z,8.45
2023-04-17T14:19:14.044Z,9.80
2023-04-17T14:21:41.161Z,9.07
2023-04-17T14:24:08.203Z,8.82
2023-04-17T14:26:34.725Z,9.45
2023-04-17T14:29:01.547Z,9.68
2023-04-17T14:31:28.096Z,9.70
2023-04-17T14:33:54.850Z,9.38
2023-04-17T14:36:21.573Z,8.85
2023-04-17T14:38:51.166Z,9.43
2023-04-17T14:41:18.147Z,9.57
2023-04-17T14:43:44.798Z,9.73
2023-04-17T14:46:11.722Z,9.52
2023-04-17T14:48:48.027Z,9.68
2023-04-17T14:51:22.276Z,9.68
2023-04-17T14:53:53.038Z,9.45
2023-04-17T14:56:21.869Z,9.68
2023-04-17T14:58:48.582Z,9.32
2023-04-17T15:01:15.371Z,9.90
2023-04-17T15:03:45.171Z,9.55
2023-04-17T15:06:14.019Z,8.23
2023-04-17T15:08:40.616Z,9.68
2023-04-17T15:11:07.140Z,9.82
2023-04-17T15:13:34.402Z,10.02
2023-04-17T15:16:00.951Z,8.68
2023-04-17T15:18:27.412Z,8.13
2023-04-17T15:20:54.031Z,8.55
2023-04-17T15:23:21.728Z,9.80
2023-04-17T15:25:48.751Z,8.68
2023-04-17T15:28:15.903Z,8.55
2023-04-17T15:30:42.630Z,8.40
2023-04-17T15:33:10.384Z,7.88
2023-04-17T15:35:37.524Z,9.00
2023-04-17T15:38:07.666Z,8.77
2023-04-17T15:40:34.171Z,7.90
2023-04-17T15:43:01.121Z,7.97
2023-04-17T15:45:27.951Z,7.65
2023-04-17T15:47:54.581Z,7.45
2023-04-17T15:50:21.776Z,7.53
2023-04-17T15:52:48.389Z,7.38
2023-04-17T15:55:16.092Z,7.85
2023-04-17T15:57:43.228Z,7.40
2023-04-17T16:00:15.856Z,7.40
2023-04-17T16:02:45.287Z,6.97
2023-04-17T16:05:12.249Z,6.25
2023-04-17T16:07:38.842Z,6.05
2023-04-17T16:10:51.226Z,6.07
2023-04-17T16:13:10.166Z,5.78
2023-04-17T16:15:37.034Z,5.82
2023-04-17T16:18:04.415Z,6.47
2023-04-17T16:20:31.626Z,6.47
2023-04-17T16:22:58.186Z,6.30
2023-04-17T16:25:24.808Z,6.35
2023-04-17T16:27:51.331Z,6.28
2023-04-17T16:30:18.196Z,6.93
2023-04-17T16:32:46.119Z,6.72
2023-04-17T16:35:13.118Z,7.20
2023-04-17T16:37:39.611Z,7.63
2023-04-17T16:40:06.906Z,7.38
2023-04-17T16:42:33.416Z,7.57
2023-04-17T16:45:00.341Z,7.68
2023-04-17T16:47:29.174Z,7.55
2023-04-17T16:49:55.790Z,8.00
2023-04-17T16:52:22.373Z,8.25
2023-04-17T16:54:48.914Z,7.93
2023-04-17T16:57:15.845Z,8.05
2023-04-17T16:59:43.259Z,7.80
2023-04-17T17:02:09.794Z,8.45
2023-04-17T17:04:36.524Z,7.97
2023-04-17T17:07:03.056Z,8.00
2023-04-17T17:09:29.630Z,7.80
2023-04-17T17:11:57.060Z,8.13
2023-04-17T17:14:24.094Z,8.57
2023-04-17T17:16:50.737Z,8.48
2023-04-17T17:19:17.423Z,7.78
2023-04-17T17:21:46.208Z,8.30
2023-04-17T17:24:12.663Z,8.02
2023-04-17T17:26:39.152Z,7.47
2023-04-17T17:29:06.373Z,8.85
2023-04-17T17:31:34.421Z,8.05
2023-04-17T17:34:11.925Z,8.07
2023-04-17T17:36:49.618Z,8.23
2023-04-17T17:39:16.382Z,8.27
2023-04-17T17:41:45.140Z,8.82
2023-04-17T17:44:13.517Z,9.20
2023-04-17T17:46:40.297Z,8.63
2023-04-17T17:49:06.897Z,8.35
2023-04-17T17:51:33.824Z,9.35
2023-04-17T17:54:00.344Z,8.52
2023-04-17T17:56:26.815Z,9.13
2023-04-17T17:58:53.617Z,9.27
2023-04-17T18:01:20.960Z,9.68
2023-04-17T18:03:49.543Z,9.32
2023-04-17T18:06:17.519Z,8.68
2023-04-17T18:08:44.032Z,9.57
2023-04-17T18:11:13.191Z,10.02
2023-04-17T18:13:39.750Z,10.00
2023-04-17T18:16:06.559Z,8.85
2023-04-17T18:18:33.353Z,9.23
2023-04-17T18:20:59.983Z,9.95
2023-04-17T18:23:26.455Z,9.13
2023-04-17T18:25:58.611Z,10.25
2023-04-17T18:28:26.260Z,9.80
2023-04-17T18:30:52.834Z,9.50
2023-04-17T18:33:19.378Z,11.02
2023-04-17T18:35:46.003Z,10.10
2023-04-17T18:38:12.479Z,11.00
2023-04-17T18:40:38.962Z,11.00
2023-04-17T18:43:06.132Z,11.20
2023-04-17T18:45:37.261Z,10.30
2023-04-17T18:48:06.913Z,10.32
2023-04-17T18:50:34.456Z,11.50
2023-04-17T18:53:03.604Z,10.85
2023-04-17T18:55:30.388Z,11.48
2023-04-17T18:57:57.219Z,10.65
2023-04-17T19:00:23.908Z,10.50
2023-04-17T19:02:50.602Z,10.93
2023-04-17T19:05:17.386Z,10.73
2023-04-17T19:07:43.941Z,10.20
2023-04-17T19:10:11.581Z,11.05
2023-04-17T19:12:38.121Z,10.88
2023-04-17T19:15:06.355Z,10.32
2023-04-17T19:17:33.099Z,10.10
2023-04-17T19:19:59.994Z,11.77
2023-04-17T19:22:26.953Z,11.52
2023-04-17T19:24:56.833Z,11.15
2023-04-17T19:27:28.076Z,11.05
2023-04-17T19:29:54.884Z,11.18
2023-04-17T19:32:21.848Z,11.55
2023-04-17T19:34:48.432Z,11.35
2023-04-17T19:37:15.976Z,10.57
2023-04-17T19:39:42.594Z,11.73
2023-04-17T19:42:09.341Z,11.40
2023-04-17T19:44:35.926Z,11.25
2023-04-17T19:47:05.985Z,11.13
2023-04-17T19:49:35.517Z,11.73
2023-04-17T19:52:02.885Z,11.85
2023-04-17T19:54:30.679Z,11.23
2023-04-17T19:56:57.345Z,11.45
2023-04-17T19:59:24.568Z,11.43
2023-04-17T20:01:51.294Z,11.30
2023-04-17T20:04:17.924Z,11.10
2023-04-17T20:06:44.646Z,11.18
2023-04-17T20:09:13.296Z,10.85
2023-04-17T20:11:41.189Z,11.18
2023-04-17T20:14:07.865Z,10.45
2023-04-17T20:16:34.396Z,10.15
2023-04-17T20:19:01.528Z,11.38
2023-04-17T20:21:28.147Z,11.35
2023-04-17T20:23:55.309Z,12.05
2023-04-17T20:26:22.050Z,10.77
2023-04-17T20:28:49.287Z,11.13
2023-04-17T20:31:15.844Z,10.70
2023-04-17T20:33:42.892Z,11.95
2023-04-17T20:36:09.755Z,10.63
2023-04-17T20:38:36.619Z,11.40
2023-04-17T20:41:03.229Z,10.43
2023-04-17T20:43:32.460Z,11.38
2023-04-17T20:46:01.947Z,11.25
2023-04-17T20:48:28.755Z,11.07
2023-04-17T20:50:55.438Z,10.98
2023-04-17T20:53:21.992Z,11.00
2023-04-17T20:55:48.629Z,11.50
2023-04-17T20:58:15.251Z,11.23
2023-04-17T21:00:54.276Z,10.77
2023-04-17T21:03:29.993Z,11.40
2023-04-17T21:05:57.048Z,10.95
2023-04-17T21:08:24.598Z,11.32
2023-04-17T21:10:51.533Z,11.10
2023-04-17T21:13:18.103Z,10.70
2023-04-17T21:15:44.700Z,11.30
2023-04-17T21:18:11.252Z,11.23
2023-04-17T21:20:38.982Z,11.18
2023-04-17T21:23:06.903Z,10.32
2023-04-17T21:25:33.677Z,11.52
2023-04-17T21:28:00.251Z,10.60
2023-04-17T21:30:27.473Z,11.45
2023-04-17T21:32:54.192Z,10.98
2023-04-17T21:35:20.829Z,11.05
2023-04-17T21:37:47.338Z,10.77
2023-04-17T21:40:14.153Z,11.02
2023-04-17T21:42:40.902Z,11.10
2023-04-17T21:45:07.987Z,11.23
2023-04-17T21:47:34.970Z,10.38
2023-04-17T21:50:01.493Z,11.15
2023-04-17T21:52:28.025Z,10.95
2023-04-17T21:54:54.491Z,11.18
2023-04-17T21:57:20.956Z,10.57
2023-04-17T21:59:47.526Z,10.77
2023-04-17T22:02:14.115Z,11.00
2023-04-17T22:04:40.656Z,11.02
2023-04-17T22:07:08.572Z,10.30
2023-04-17T22:09:35.254Z,10.57
2023-04-17T22:12:11.210Z,11.07
2023-04-17T22:14:37.708Z,10.30
2023-04-17T22:17:04.849Z,10.48
2023-04-17T22:19:31.291Z,10.60
2023-04-17T22:21:57.884Z,11.27
2023-04-17T22:24:24.478Z,11.27
2023-04-17T22:26:50.921Z,10.15
2023-04-17T22:29:17.552Z,10.00
2023-04-17T22:31:43.998Z,10.32
2023-04-17T22:34:10.508Z,10.68
2023-04-17T22:36:37.035Z,9.98
2023-04-17T22:39:03.668Z,11.30
2023-04-17T22:41:30.543Z,10.30
2023-04-17T22:43:56.997Z,10.70
2023-04-17T22:46:23.567Z,10.40
2023-04-17T22:48:50.190Z,10.18
2023-04-17T22:51:18.752Z,10.45
2023-04-17T22:53:45.549Z,10.13
2023-04-17T22:56:13.311Z,9.82
2023-04-17T22:58:39.869Z,10.30
2023-04-17T23:01:06.476Z,10.65
2023-04-17T23:03:34.693Z,9.80
2023-04-17T23:06:01.242Z,9.98
2023-04-17T23:08:29.814Z,10.57
2023-04-17T23:11:00.388Z,10.55
2023-04-17T23:13:31.542Z,10.25
2023-04-17T23:15:58.198Z,10.45
2023-04-17T23:18:24.980Z,10.48
2023-04-17T23:20:51.498Z,10.43
2023-04-17T23:23:18.540Z,10.65
2023-04-17T23:25:45.178Z,10.52
2023-04-17T23:28:11.787Z,10.38
2023-04-17T23:30:38.366Z,10.40
2023-04-17T23:33:04.866Z,10.82
2023-04-17T23:35:31.333Z,10.48
2023-04-17T23:37:57.778Z,10.18
2023-04-17T23:40:24.232Z,11.18
2023-04-17T23:42:50.730Z,11.38
2023-04-17T23:45:17.242Z,10.05
2023-04-17T23:47:43.880Z,10.43
2023-04-17T23:50:10.683Z,10.50
2023-04-17T23:52:37.181Z,10.77
2023-04-17T23:55:04.476Z,11.50
2023-04-17T23:57:30.933Z,11.05
2023-04-17T23:59:57.428Z,10.25
